Monday, April 23, 2018, 1:36 AM GMT
Back to Local

CWNQ, Nicolet Automatic Weather Reporting System

Location: , , Canada Lat: 46.217
Local Time: 1:36 AM GMT ( 1:36 GMT) Lon: -72.65
Time Zone: GMT Elev: 32 ft

Show me the last for .
Show Coded

Time T Td Feel RH Dir Speed Gust Alt SLP Vis Weather Sky Remarks
2018-04-23 01:00 42 22 - 43 80° 1 - - 30.36 0 None
2018-04-23 00:00 47 14 - 25 60° 2 - - 30.34 0 None
2018-04-22 23:00 54 13 - 19 190° 1 - - 30.32 0 None
2018-04-22 22:00 54 12 - 18 230° 3 - - 30.33 0 None
2018-04-22 21:00 53 15 - 21 210° 5 - - 30.34 0 None
2018-04-22 20:00 52 15 - 22 230° 6 - - 30.35 0 None
2018-04-22 19:00 50 18 47 27 220° 8 - - 30.37 0 None
2018-04-22 18:00 48 17 44 29 220° 8 - - 30.38 0 None
2018-04-22 17:00 46 19 42 33 220° 8 - - 30.38 0 None
2018-04-22 16:00 44 22 39 42 220° 8 - - 30.40 0 None
2018-04-22 15:00 44 24 40 45 260° 8 - - 30.40 0 None
2018-04-22 14:00 43 24 38 47 280° 7 - - 30.40 0 None
2018-04-22 13:00 40 18 34 41 340° 9 - - 30.39 0 None
2018-04-22 12:00 38 22 34 52 310° 5 - - 30.39 0 None
2018-04-22 11:00 35 21 30 54 330° 6 - - 30.38 0 None
2018-04-22 10:00 34 21 30 57 340° 5 - - 30.36 0 None
2018-04-22 09:00 35 21 30 55 330° 6 - - 30.34 0 None
2018-04-22 06:00 39 20 34 45 340° 7 - - 30.31 0 None
2018-04-22 05:00 39 21 37 48 330° 3 - - 30.31 0 None
2018-04-22 04:00 41 20 36 42 340° 7 - - 30.30 0 None
2018-04-22 03:00 42 20 38 40 330° 6 - - 30.30 0 None

Support USWX by starting your Amazon purchase here.